Time;durP1;ratioP1;P1;durP2;ratioP2;P2;SDS_P1;SDS_P2;PMS_P1;PMS_P2;Temp;Humidity;BMP_temperature;BMP_pressure;BME280_temperature;BME280_humidity;BME280_pressure;Samples;Min_cycle;Max_cycle;Signal;HPM_P1;HPM_P2
2021/05/08 00:00:41;;;;;;;6.28;1.45;;;;;;;;;;5022640;28;20036;-68
2021/05/08 00:03:07;;;;;;;3.22;1.73;;;;;;;;;;5021413;28;20501;-63
2021/05/08 00:05:33;;;;;;;3.30;1.70;;;;;;;;;;5010233;28;20033;-64
2021/05/08 00:07:59;;;;;;;5.18;1.75;;;;;;;;;;5009152;28;20049;-67
2021/05/08 00:10:25;;;;;;;4.05;1.95;;;;;;;;;;5020050;28;20060;-67
2021/05/08 00:12:52;;;;;;;5.68;2.30;;;;;;;;;;5019391;28;20479;-67
2021/05/08 00:15:18;;;;;;;9.70;2.50;;;;;;;;;;5024112;28;20131;-66
2021/05/08 00:17:44;;;;;;;7.53;2.17;;;;;;;;;;4992608;28;20038;-68
2021/05/08 00:20:11;;;;;;;14.85;2.33;;;;;;;;;;4990857;28;20030;-67
2021/05/08 00:22:38;;;;;;;7.20;2.38;;;;;;;;;;4989598;28;20136;-67
2021/05/08 00:25:05;;;;;;;6.63;2.58;;;;;;;;;;5008869;28;20359;-68
2021/05/08 00:27:31;;;;;;;6.50;2.15;;;;;;;;;;5010695;28;20026;-67
2021/05/08 00:29:57;;;;;;;6.25;2.42;;;;;;;;;;5010555;28;20034;-66
2021/05/08 00:32:23;;;;;;;7.70;2.00;;;;;;;;;;5042556;28;20095;-66
2021/05/08 00:34:49;;;;;;;9.88;2.13;;;;;;;;;;5010276;28;20493;-68
2021/05/08 00:37:15;;;;;;;7.25;2.45;;;;;;;;;;5010521;28;20105;-67
2021/05/08 00:39:41;;;;;;;6.75;2.22;;;;;;;;;;5010627;28;20037;-66
2021/05/08 00:42:07;;;;;;;7.18;2.05;;;;;;;;;;5010612;28;20498;-67
2021/05/08 00:44:33;;;;;;;6.50;2.40;;;;;;;;;;5010157;28;20026;-68
2021/05/08 00:47:00;;;;;;;6.57;2.30;;;;;;;;;;5010546;28;20029;-67
2021/05/08 00:49:28;;;;;;;12.48;1.67;;;;;;;;;;5010493;28;20174;-67
2021/05/08 00:51:54;;;;;;;6.03;1.80;;;;;;;;;;5010445;28;20508;-66
2021/05/08 00:54:21;;;;;;;9.82;2.50;;;;;;;;;;5010452;28;20037;-67
2021/05/08 00:56:48;;;;;;;6.00;2.47;;;;;;;;;;5009238;28;20028;-66
2021/05/08 00:59:14;;;;;;;6.03;2.25;;;;;;;;;;5010425;28;20106;-67
2021/05/08 01:01:41;;;;;;;8.77;2.05;;;;;;;;;;5010405;28;20040;-67
2021/05/08 01:04:07;;;;;;;5.70;2.10;;;;;;;;;;5010166;28;20030;-67
2021/05/08 01:06:33;;;;;;;5.60;1.73;;;;;;;;;;5009800;28;20018;-67
2021/05/08 01:09:18;;;;;;;5.20;2.33;;;;;;;;;;5028285;28;20023;-67
2021/05/08 01:11:44;;;;;;;4.60;2.03;;;;;;;;;;4990400;28;20030;-67
2021/05/08 01:14:10;;;;;;;4.57;1.95;;;;;;;;;;5021920;28;20011;-67
2021/05/08 01:16:36;;;;;;;3.75;1.73;;;;;;;;;;5006712;28;20030;-68
2021/05/08 01:19:03;;;;;;;3.83;1.88;;;;;;;;;;5009859;28;20085;-67
2021/05/08 01:21:30;;;;;;;4.50;1.95;;;;;;;;;;5041820;28;20478;-67
2021/05/08 01:23:56;;;;;;;6.20;2.28;;;;;;;;;;5009615;28;20052;-67
2021/05/08 01:26:22;;;;;;;5.00;1.77;;;;;;;;;;5009780;28;20028;-67
2021/05/08 01:28:48;;;;;;;3.90;2.00;;;;;;;;;;5009743;28;20065;-68
2021/05/08 01:31:14;;;;;;;4.05;1.90;;;;;;;;;;5009981;28;20033;-68
2021/05/08 01:33:41;;;;;;;4.93;1.85;;;;;;;;;;5009633;28;20498;-67
2021/05/08 01:36:07;;;;;;;6.13;1.75;;;;;;;;;;5009704;28;20478;-67
2021/05/08 01:38:34;;;;;;;4.70;1.80;;;;;;;;;;5009696;28;20386;-68
2021/05/08 01:41:01;;;;;;;5.10;2.05;;;;;;;;;;5009846;28;20398;-66
2021/05/08 01:43:28;;;;;;;6.68;1.95;;;;;;;;;;5008495;28;20025;-67
2021/05/08 01:45:55;;;;;;;3.45;1.70;;;;;;;;;;5008178;28;20036;-66
2021/05/08 01:48:21;;;;;;;4.70;1.88;;;;;;;;;;5009616;28;20339;-67
2021/05/08 01:50:47;;;;;;;3.58;1.63;;;;;;;;;;5009476;28;20064;-67
2021/05/08 01:53:13;;;;;;;3.33;1.92;;;;;;;;;;5041188;28;20026;-66
2021/05/08 01:55:40;;;;;;;4.20;1.80;;;;;;;;;;5009265;28;20026;-67
2021/05/08 01:58:06;;;;;;;3.28;1.67;;;;;;;;;;5008143;28;20455;-67
2021/05/08 02:00:34;;;;;;;4.85;2.17;;;;;;;;;;5009485;28;20071;-68
2021/05/08 02:03:00;;;;;;;5.78;1.80;;;;;;;;;;5009475;28;20079;-67
2021/05/08 02:05:33;;;;;;;6.35;1.90;;;;;;;;;;5009504;28;20446;-66
2021/05/08 02:08:01;;;;;;;4.18;2.00;;;;;;;;;;5009410;28;20100;-66
2021/05/08 02:10:27;;;;;;;4.35;2.00;;;;;;;;;;5009303;28;20030;-68
2021/05/08 02:12:53;;;;;;;4.25;1.80;;;;;;;;;;5009502;28;20030;-66
2021/05/08 02:15:20;;;;;;;4.05;2.10;;;;;;;;;;5035372;28;20026;-66
2021/05/08 02:17:46;;;;;;;4.05;2.00;;;;;;;;;;4996585;28;20021;-67
2021/05/08 02:20:16;;;;;;;4.18;2.30;;;;;;;;;;5007782;28;20566;-67
2021/05/08 02:22:43;;;;;;;4.53;2.10;;;;;;;;;;5007751;28;20467;-66
2021/05/08 02:25:11;;;;;;;3.40;1.60;;;;;;;;;;5008140;28;20061;-67
2021/05/08 02:27:37;;;;;;;5.85;2.00;;;;;;;;;;5008099;28;20040;-67
2021/05/08 02:30:07;;;;;;;3.47;1.40;;;;;;;;;;5008266;28;20081;-67
2021/05/08 02:32:33;;;;;;;3.53;1.55;;;;;;;;;;5008229;28;20018;-66
2021/05/08 02:34:59;;;;;;;5.38;1.85;;;;;;;;;;5007924;28;20050;-67
2021/05/08 02:37:25;;;;;;;3.78;1.42;;;;;;;;;;5011016;28;20030;-67
2021/05/08 02:39:51;;;;;;;3.53;1.50;;;;;;;;;;5011800;28;20057;-66
2021/05/08 02:42:17;;;;;;;2.92;1.42;;;;;;;;;;5012218;28;20029;-68
2021/05/08 02:44:43;;;;;;;2.95;1.40;;;;;;;;;;5012317;28;20047;-67
2021/05/08 02:47:19;;;;;;;3.22;1.67;;;;;;;;;;5041012;28;20386;-67
2021/05/08 02:49:48;;;;;;;6.60;1.50;;;;;;;;;;5012145;28;20143;-67
2021/05/08 02:52:15;;;;;;;3.72;2.05;;;;;;;;;;5011831;28;20050;-67
2021/05/08 02:54:41;;;;;;;3.53;1.73;;;;;;;;;;5029336;28;20038;-66
2021/05/08 02:57:07;;;;;;;3.35;1.40;;;;;;;;;;5024279;28;20026;-66
2021/05/08 02:59:33;;;;;;;3.83;1.45;;;;;;;;;;5024103;28;20374;-67
2021/05/08 03:02:00;;;;;;;4.00;1.42;;;;;;;;;;5024200;28;20084;-68
2021/05/08 03:04:26;;;;;;;2.83;1.35;;;;;;;;;;5001830;28;20057;-66
2021/05/08 03:06:52;;;;;;;3.50;1.20;;;;;;;;;;5011926;28;20020;-67
2021/05/08 03:09:18;;;;;;;4.07;1.55;;;;;;;;;;5043531;28;20083;-68
2021/05/08 03:11:44;;;;;;;3.72;1.35;;;;;;;;;;5043746;28;20031;-67
2021/05/08 03:14:13;;;;;;;2.83;1.40;;;;;;;;;;5040641;28;20038;-67
2021/05/08 03:16:40;;;;;;;5.63;1.30;;;;;;;;;;5011909;28;20022;-66
2021/05/08 03:19:06;;;;;;;4.40;1.27;;;;;;;;;;5011869;28;20100;-67
2021/05/08 03:21:32;;;;;;;4.43;1.73;;;;;;;;;;5011804;28;20018;-67
2021/05/08 03:23:58;;;;;;;2.70;1.40;;;;;;;;;;5011513;28;20048;-67
2021/05/08 03:26:25;;;;;;;4.40;1.45;;;;;;;;;;5010327;28;20022;-67
2021/05/08 03:28:51;;;;;;;3.53;1.50;;;;;;;;;;5011795;28;20022;-67
2021/05/08 03:31:17;;;;;;;4.05;1.58;;;;;;;;;;5043402;28;20038;-68
2021/05/08 03:33:43;;;;;;;3.63;1.40;;;;;;;;;;5011402;28;20102;-67
2021/05/08 03:36:09;;;;;;;3.05;1.30;;;;;;;;;;5011483;28;20018;-69
2021/05/08 03:38:35;;;;;;;5.65;1.73;;;;;;;;;;5011531;28;20083;-67
2021/05/08 03:41:01;;;;;;;2.78;1.40;;;;;;;;;;5011738;28;20025;-68
2021/05/08 03:43:27;;;;;;;2.65;1.52;;;;;;;;;;5011440;28;20022;-68
2021/05/08 03:45:54;;;;;;;2.78;1.50;;;;;;;;;;5011418;28;20073;-67
2021/05/08 03:48:20;;;;;;;4.03;1.50;;;;;;;;;;5010226;28;20029;-67
2021/05/08 03:50:46;;;;;;;3.33;1.27;;;;;;;;;;5011464;28;20034;-66
2021/05/08 03:53:12;;;;;;;3.33;1.75;;;;;;;;;;5011132;28;20049;-67
2021/05/08 03:55:40;;;;;;;2.75;1.35;;;;;;;;;;5011375;28;20033;-67
2021/05/08 03:58:06;;;;;;;4.40;1.50;;;;;;;;;;5011048;28;20049;-67
2021/05/08 04:00:32;;;;;;;3.78;1.60;;;;;;;;;;5011272;28;20022;-67
2021/05/08 04:02:58;;;;;;;5.47;1.63;;;;;;;;;;5010959;28;20033;-68
2021/05/08 04:05:24;;;;;;;3.83;1.80;;;;;;;;;;5009946;28;20029;-67
2021/05/08 04:07:50;;;;;;;3.25;1.45;;;;;;;;;;5009876;28;20029;-66
2021/05/08 04:10:17;;;;;;;3.33;1.70;;;;;;;;;;5010877;28;20034;-67
2021/05/08 04:12:43;;;;;;;2.97;1.30;;;;;;;;;;5010713;28;20029;-68
2021/05/08 04:15:09;;;;;;;2.80;1.48;;;;;;;;;;5010895;28;20037;-68
2021/05/08 04:17:35;;;;;;;4.45;1.73;;;;;;;;;;4994428;28;20058;-66
2021/05/08 04:20:02;;;;;;;4.75;1.92;;;;;;;;;;5010025;28;20026;-67
2021/05/08 04:22:28;;;;;;;3.88;1.40;;;;;;;;;;5010781;28;20021;-68
2021/05/08 04:24:54;;;;;;;5.50;1.75;;;;;;;;;;5042954;28;20029;-67
2021/05/08 04:27:20;;;;;;;5.53;1.90;;;;;;;;;;5042737;28;20026;-69
2021/05/08 04:29:46;;;;;;;6.47;1.95;;;;;;;;;;5042353;28;20083;-69
2021/05/08 04:32:12;;;;;;;4.47;2.13;;;;;;;;;;5010722;28;20482;-69
2021/05/08 04:34:38;;;;;;;3.28;1.55;;;;;;;;;;5009946;28;20540;-69
2021/05/08 04:37:04;;;;;;;3.45;1.50;;;;;;;;;;5010707;28;20082;-67
2021/05/08 04:39:30;;;;;;;5.35;1.90;;;;;;;;;;5010737;28;20021;-68
2021/05/08 04:41:56;;;;;;;3.28;1.30;;;;;;;;;;5010786;28;20490;-69
2021/05/08 04:44:24;;;;;;;3.80;1.55;;;;;;;;;;5010555;28;20383;-67
2021/05/08 04:46:50;;;;;;;4.50;1.42;;;;;;;;;;5024962;28;20034;-67
2021/05/08 04:49:16;;;;;;;7.10;1.73;;;;;;;;;;5029713;28;20553;-67
2021/05/08 04:51:42;;;;;;;5.82;1.77;;;;;;;;;;5029425;28;20105;-68
2021/05/08 04:54:08;;;;;;;4.60;1.77;;;;;;;;;;5021733;28;20033;-69
2021/05/08 04:56:34;;;;;;;3.90;1.50;;;;;;;;;;5010277;28;20079;-68
2021/05/08 04:59:00;;;;;;;5.05;1.50;;;;;;;;;;5009711;28;20029;-67
2021/05/08 05:01:27;;;;;;;6.45;1.85;;;;;;;;;;5008445;28;20026;-66
2021/05/08 05:03:53;;;;;;;4.03;1.60;;;;;;;;;;5041695;28;20103;-66
2021/05/08 05:06:19;;;;;;;7.85;1.35;;;;;;;;;;5010278;28;20032;-66
2021/05/08 05:08:45;;;;;;;3.03;1.40;;;;;;;;;;5010132;28;20470;-67
2021/05/08 05:11:11;;;;;;;3.53;1.60;;;;;;;;;;5008951;28;20034;-67
2021/05/08 05:13:39;;;;;;;3.13;1.45;;;;;;;;;;5009324;28;20467;-67
2021/05/08 05:16:06;;;;;;;4.53;1.67;;;;;;;;;;5009695;28;20466;-68
2021/05/08 05:18:32;;;;;;;3.45;1.25;;;;;;;;;;5009770;28;20050;-66
2021/05/08 05:20:58;;;;;;;8.00;1.50;;;;;;;;;;5010148;28;20109;-67
2021/05/08 05:23:24;;;;;;;3.55;1.73;;;;;;;;;;5009957;28;20037;-66
2021/05/08 05:25:50;;;;;;;3.53;1.45;;;;;;;;;;5009843;28;20426;-66
2021/05/08 05:28:24;;;;;;;3.50;1.52;;;;;;;;;;5008601;28;20029;-66
2021/05/08 05:30:51;;;;;;;3.28;1.40;;;;;;;;;;5009881;28;20038;-68
2021/05/08 05:33:17;;;;;;;3.25;1.50;;;;;;;;;;5008303;28;20046;-66
2021/05/08 05:35:43;;;;;;;3.30;1.50;;;;;;;;;;5009594;28;20030;-67
2021/05/08 05:38:09;;;;;;;3.47;1.52;;;;;;;;;;5041291;28;20037;-67
2021/05/08 05:40:36;;;;;;;3.78;1.45;;;;;;;;;;5041537;28;20040;-66
2021/05/08 05:43:02;;;;;;;4.20;1.40;;;;;;;;;;5041781;28;20044;-66
2021/05/08 05:45:28;;;;;;;3.30;1.40;;;;;;;;;;5009384;28;20025;-66
2021/05/08 05:47:55;;;;;;;3.03;1.40;;;;;;;;;;5009728;28;20033;-66
2021/05/08 05:50:21;;;;;;;4.45;1.27;;;;;;;;;;5009609;28;20188;-67
2021/05/08 05:52:48;;;;;;;3.38;1.20;;;;;;;;;;5009582;28;20084;-68
2021/05/08 05:55:14;;;;;;;3.55;1.40;;;;;;;;;;5009593;28;20033;-67
2021/05/08 05:57:40;;;;;;;3.40;1.65;;;;;;;;;;5037739;28;20029;-67
2021/05/08 06:00:06;;;;;;;3.80;1.38;;;;;;;;;;5040912;28;20491;-67
2021/05/08 06:02:35;;;;;;;4.18;1.60;;;;;;;;;;5037789;27;20509;-67
2021/05/08 06:05:01;;;;;;;3.78;1.70;;;;;;;;;;5005570;28;21047;-66
2021/05/08 06:07:27;;;;;;;4.85;1.40;;;;;;;;;;5009260;28;20029;-67
2021/05/08 06:09:53;;;;;;;5.13;1.30;;;;;;;;;;5009352;28;20034;-67
2021/05/08 06:12:19;;;;;;;3.45;1.38;;;;;;;;;;5012166;28;20018;-67
2021/05/08 06:14:45;;;;;;;3.30;1.55;;;;;;;;;;5012889;28;20026;-66
2021/05/08 06:17:11;;;;;;;2.55;1.10;;;;;;;;;;5012426;28;20022;-66
2021/05/08 06:19:37;;;;;;;4.45;1.30;;;;;;;;;;5012553;28;20474;-67
2021/05/08 06:22:03;;;;;;;4.38;1.50;;;;;;;;;;5044407;28;20184;-67
2021/05/08 06:24:29;;;;;;;3.38;1.30;;;;;;;;;;5012638;28;20030;-67
2021/05/08 06:26:55;;;;;;;3.08;1.40;;;;;;;;;;5012719;28;20057;-67
2021/05/08 06:29:21;;;;;;;4.28;1.50;;;;;;;;;;5012508;28;20058;-67
2021/05/08 06:31:48;;;;;;;4.25;1.92;;;;;;;;;;5044155;28;20041;-67
2021/05/08 06:34:14;;;;;;;2.83;1.30;;;;;;;;;;5044114;28;20046;-66
2021/05/08 06:36:40;;;;;;;3.58;1.30;;;;;;;;;;5041224;28;20077;-66
2021/05/08 06:39:06;;;;;;;2.80;1.25;;;;;;;;;;5021237;28;20671;-66
2021/05/08 06:41:32;;;;;;;15.77;8.43;;;;;;;;;;5023796;28;20022;-68
2021/05/08 06:43:58;;;;;;;30.05;14.50;;;;;;;;;;5020545;28;20037;-69
2021/05/08 06:46:25;;;;;;;24.98;14.40;;;;;;;;;;5019812;28;20079;-68
2021/05/08 06:48:51;;;;;;;27.15;14.63;;;;;;;;;;5020297;28;20034;-69
2021/05/08 06:51:17;;;;;;;20.42;12.68;;;;;;;;;;5006081;28;20088;-69
2021/05/08 06:53:43;;;;;;;26.75;10.85;;;;;;;;;;5013320;28;20799;-66
2021/05/08 06:56:09;;;;;;;20.38;9.52;;;;;;;;;;5010441;28;20030;-68
2021/05/08 06:58:35;;;;;;;15.45;8.88;;;;;;;;;;5041500;28;20022;-70
2021/05/08 07:01:01;;;;;;;14.63;8.43;;;;;;;;;;4999666;28;20102;-67
2021/05/08 07:03:27;;;;;;;13.43;8.20;;;;;;;;;;5011229;28;20041;-65
2021/05/08 07:05:53;;;;;;;17.90;7.90;;;;;;;;;;5012810;28;20053;-68
2021/05/08 07:08:20;;;;;;;14.50;7.93;;;;;;;;;;5019385;28;20479;-69
2021/05/08 07:10:50;;;;;;;10.63;6.75;;;;;;;;;;5022684;28;20520;-69
2021/05/08 07:13:16;;;;;;;11.77;6.70;;;;;;;;;;5022192;28;20030;-68
2021/05/08 07:15:43;;;;;;;10.40;6.32;;;;;;;;;;5020547;28;20090;-70
2021/05/08 07:18:09;;;;;;;11.10;5.63;;;;;;;;;;5030585;28;20049;-68
2021/05/08 07:20:36;;;;;;;14.10;6.18;;;;;;;;;;5027503;28;20036;-68
2021/05/08 07:23:03;;;;;;;9.40;5.22;;;;;;;;;;5030104;28;20074;-69
2021/05/08 07:25:29;;;;;;;8.82;5.25;;;;;;;;;;5018347;28;20017;-76
2021/05/08 07:28:07;;;;;;;60.85;15.25;;;;;;;;;;5010402;28;20038;-66
2021/05/08 07:30:34;;;;;;;40.55;13.00;;;;;;;;;;5010532;28;20564;-65
2021/05/08 07:33:00;;;;;;;28.90;9.90;;;;;;;;;;5010458;28;20105;-66
2021/05/08 07:35:26;;;;;;;28.73;9.77;;;;;;;;;;5040503;28;20405;-65
2021/05/08 07:37:52;;;;;;;24.90;9.25;;;;;;;;;;5010368;28;20018;-65
2021/05/08 07:40:18;;;;;;;27.83;8.60;;;;;;;;;;5010283;28;20556;-66
2021/05/08 07:42:44;;;;;;;26.23;8.82;;;;;;;;;;5015057;28;20017;-66
2021/05/08 07:45:11;;;;;;;28.55;8.48;;;;;;;;;;5026062;28;20037;-66
2021/05/08 07:47:37;;;;;;;18.70;7.45;;;;;;;;;;5008608;28;20052;-66
2021/05/08 07:50:04;;;;;;;19.55;6.38;;;;;;;;;;5041977;28;20529;-68
2021/05/08 07:52:30;;;;;;;20.00;6.95;;;;;;;;;;5020280;28;20103;-67
2021/05/08 07:54:56;;;;;;;21.20;5.82;;;;;;;;;;5006479;28;20033;-66
2021/05/08 07:57:22;;;;;;;36.45;8.43;;;;;;;;;;5008284;28;20041;-66
2021/05/08 07:59:48;;;;;;;19.35;6.25;;;;;;;;;;5015557;28;20343;-66
2021/05/08 08:02:14;;;;;;;20.05;5.25;;;;;;;;;;5009364;28;20032;-71
2021/05/08 08:04:41;;;;;;;19.58;4.82;;;;;;;;;;5008787;28;20110;-66
2021/05/08 08:07:07;;;;;;;18.38;5.20;;;;;;;;;;5010038;28;20041;-66
2021/05/08 08:09:33;;;;;;;17.42;4.90;;;;;;;;;;5007100;28;20045;-65
2021/05/08 08:11:59;;;;;;;15.38;5.15;;;;;;;;;;5008647;28;20101;-66
2021/05/08 08:14:25;;;;;;;15.20;4.80;;;;;;;;;;5033447;28;20022;-66
2021/05/08 08:16:51;;;;;;;14.70;4.07;;;;;;;;;;4990983;28;20607;-66
2021/05/08 08:19:17;;;;;;;11.77;4.35;;;;;;;;;;4990762;28;20030;-66
2021/05/08 08:21:43;;;;;;;9.68;3.72;;;;;;;;;;4994165;28;20417;-66
2021/05/08 08:24:09;;;;;;;16.38;4.13;;;;;;;;;;5008752;28;20603;-66
2021/05/08 08:26:36;;;;;;;11.02;4.00;;;;;;;;;;5010085;28;20034;-66
2021/05/08 08:29:02;;;;;;;14.70;3.50;;;;;;;;;;5007005;28;20028;-66
2021/05/08 08:31:29;;;;;;;12.80;3.88;;;;;;;;;;5023892;28;20433;-66
2021/05/08 08:33:55;;;;;;;15.15;3.63;;;;;;;;;;4997927;28;20050;-66
2021/05/08 08:36:21;;;;;;;8.90;3.40;;;;;;;;;;5008917;28;20038;-66
2021/05/08 08:38:47;;;;;;;9.65;3.33;;;;;;;;;;5009721;28;20132;-67
2021/05/08 08:41:14;;;;;;;10.98;3.58;;;;;;;;;;5009924;28;20129;-66
2021/05/08 08:43:42;;;;;;;11.35;3.10;;;;;;;;;;5009762;28;20026;-66
2021/05/08 08:46:09;;;;;;;9.88;3.05;;;;;;;;;;5005874;28;20059;-66
2021/05/08 08:48:36;;;;;;;6.18;2.72;;;;;;;;;;5009865;28;20026;-67
2021/05/08 08:51:02;;;;;;;9.52;3.03;;;;;;;;;;5031656;28;20499;-66
2021/05/08 08:53:28;;;;;;;9.57;3.08;;;;;;;;;;5021448;28;20022;-66
2021/05/08 08:55:57;;;;;;;6.65;2.60;;;;;;;;;;4997673;28;20026;-66
2021/05/08 08:58:35;;;;;;;8.43;2.55;;;;;;;;;;5009123;28;20387;-66
2021/05/08 09:01:01;;;;;;;7.82;2.75;;;;;;;;;;5041514;28;20018;-65
2021/05/08 09:03:27;;;;;;;6.18;2.60;;;;;;;;;;5009199;28;20478;-66
2021/05/08 09:05:54;;;;;;;6.22;2.25;;;;;;;;;;5035937;28;20038;-66
2021/05/08 09:08:20;;;;;;;6.30;2.38;;;;;;;;;;4989853;28;20029;-66
2021/05/08 09:10:46;;;;;;;5.35;2.33;;;;;;;;;;5021112;28;20060;-66
2021/05/08 09:13:20;;;;;;;8.15;2.45;;;;;;;;;;4990022;28;20102;-67
2021/05/08 09:15:47;;;;;;;8.35;2.55;;;;;;;;;;4990377;28;20018;-66
2021/05/08 09:18:52;;;;;;;6.40;2.42;;;;;;;;;;5008144;28;20033;-66
2021/05/08 09:21:28;;;;;;;5.85;1.95;;;;;;;;;;4967615;28;20121;-66
2021/05/08 09:23:59;;;;;;;5.65;1.70;;;;;;;;;;4967556;28;20023;-66
2021/05/08 09:26:36;;;;;;;4.80;1.83;;;;;;;;;;4982117;28;20034;-66
2021/05/08 09:29:03;;;;;;;4.53;2.08;;;;;;;;;;5040336;28;20280;-66
2021/05/08 09:31:29;;;;;;;5.40;1.73;;;;;;;;;;5009385;28;20079;-70
2021/05/08 09:33:56;;;;;;;6.05;1.95;;;;;;;;;;5009074;28;20042;-66
2021/05/08 09:36:22;;;;;;;5.40;1.90;;;;;;;;;;5008690;28;20138;-66
2021/05/08 09:38:48;;;;;;;3.63;1.42;;;;;;;;;;5008946;28;20018;-66
2021/05/08 09:41:19;;;;;;;4.40;1.88;;;;;;;;;;5007303;28;20373;-66
2021/05/08 09:43:45;;;;;;;6.75;1.90;;;;;;;;;;5007920;28;20057;-66
2021/05/08 09:46:25;;;;;;;4.25;1.60;;;;;;;;;;5009168;28;20037;-67
2021/05/08 09:49:09;;;;;;;3.35;1.58;;;;;;;;;;5008596;28;20022;-67
2021/05/08 09:51:35;;;;;;;5.55;1.83;;;;;;;;;;5008877;28;20104;-67
2021/05/08 09:54:04;;;;;;;3.63;1.58;;;;;;;;;;5040503;28;20029;-68
2021/05/08 09:56:41;;;;;;;3.53;1.48;;;;;;;;;;5008821;28;20034;-66
2021/05/08 09:59:26;;;;;;;3.80;1.50;;;;;;;;;;5008099;28;20036;-68
2021/05/08 10:02:01;;;;;;;4.18;1.50;;;;;;;;;;5040414;28;20075;-66
2021/05/08 10:04:28;;;;;;;3.42;1.33;;;;;;;;;;5009117;28;20037;-66
2021/05/08 10:07:13;;;;;;;3.17;1.35;;;;;;;;;;5008862;28;20022;-66
2021/05/08 10:09:40;;;;;;;2.50;1.10;;;;;;;;;;5008297;28;20045;-67
2021/05/08 10:12:10;;;;;;;3.30;1.48;;;;;;;;;;5009005;28;20022;-70
2021/05/08 10:14:41;;;;;;;2.55;1.20;;;;;;;;;;5040492;28;20022;-67
2021/05/08 10:17:09;;;;;;;3.22;1.02;;;;;;;;;;5008950;28;20026;-67
2021/05/08 10:19:37;;;;;;;2.17;1.05;;;;;;;;;;5040018;28;20204;-66
2021/05/08 10:22:06;;;;;;;2.67;1.20;;;;;;;;;;5008937;28;20092;-68
2021/05/08 10:24:33;;;;;;;4.43;1.20;;;;;;;;;;5040381;28;20467;-66
2021/05/08 10:26:59;;;;;;;2.80;0.95;;;;;;;;;;5008416;28;20032;-68
2021/05/08 10:29:27;;;;;;;2.85;1.00;;;;;;;;;;5028126;28;20571;-67
2021/05/08 10:31:54;;;;;;;1.83;0.90;;;;;;;;;;4989311;28;20041;-68
2021/05/08 10:34:40;;;;;;;2.67;1.10;;;;;;;;;;4989168;28;20113;-67
2021/05/08 10:37:08;;;;;;;2.95;1.20;;;;;;;;;;5001869;28;20060;-67
2021/05/08 10:39:54;;;;;;;2.30;1.02;;;;;;;;;;4999109;28;20166;-72
2021/05/08 10:42:41;;;;;;;2.53;1.00;;;;;;;;;;5008609;28;20065;-66
2021/05/08 10:45:07;;;;;;;3.85;1.13;;;;;;;;;;5008565;28;20026;-67
2021/05/08 10:47:52;;;;;;;2.08;0.95;;;;;;;;;;5002284;28;20061;-66
2021/05/08 10:50:24;;;;;;;1.15;0.63;;;;;;;;;;5006746;28;20034;-67
2021/05/08 10:52:59;;;;;;;2.35;0.90;;;;;;;;;;5006732;28;20026;-66
2021/05/08 10:55:25;;;;;;;2.67;1.02;;;;;;;;;;5007663;28;20549;-67
2021/05/08 10:58:10;;;;;;;2.03;0.90;;;;;;;;;;5009942;28;20065;-66
2021/05/08 11:00:45;;;;;;;3.90;1.02;;;;;;;;;;5011244;28;20033;-67
2021/05/08 11:03:11;;;;;;;2.03;0.82;;;;;;;;;;5011176;28;20018;-67
2021/05/08 11:05:49;;;;;;;1.92;0.70;;;;;;;;;;5010200;28;20066;-66
2021/05/08 11:08:28;;;;;;;1.63;0.60;;;;;;;;;;5011641;28;20030;-66
2021/05/08 11:11:05;;;;;;;1.98;0.65;;;;;;;;;;5011551;28;20042;-67
2021/05/08 11:13:44;;;;;;;1.30;0.60;;;;;;;;;;5043371;28;20482;-66
2021/05/08 11:16:19;;;;;;;3.22;0.80;;;;;;;;;;5011375;28;20034;-66
2021/05/08 11:18:47;;;;;;;1.33;0.70;;;;;;;;;;5011442;28;20071;-66
2021/05/08 11:21:13;;;;;;;2.03;0.70;;;;;;;;;;5011434;28;20026;-66
2021/05/08 11:23:49;;;;;;;2.00;0.95;;;;;;;;;;5011365;28;20450;-66
2021/05/08 11:29:00;;;;;;;1.45;0.75;;;;;;;;;;5011572;28;20029;-66
2021/05/08 11:31:27;;;;;;;1.60;0.73;;;;;;;;;;5011630;28;20061;-66
2021/05/08 11:33:53;;;;;;;1.98;0.70;;;;;;;;;;5042995;28;20034;-67
2021/05/08 11:36:19;;;;;;;1.85;0.70;;;;;;;;;;5011207;28;20034;-65
2021/05/08 11:38:46;;;;;;;1.15;0.52;;;;;;;;;;5011294;28;20022;-66
2021/05/08 11:41:23;;;;;;;1.27;0.65;;;;;;;;;;5011072;28;20013;-66
2021/05/08 11:43:53;;;;;;;1.15;0.68;;;;;;;;;;4992953;28;20394;-66
2021/05/08 11:46:29;;;;;;;0.60;0.47;;;;;;;;;;4993815;28;20104;-66
2021/05/08 11:48:55;;;;;;;1.67;0.68;;;;;;;;;;5039956;28;20022;-67
2021/05/08 11:51:21;;;;;;;1.42;0.60;;;;;;;;;;5010539;28;20022;-66
2021/05/08 11:54:06;;;;;;;1.45;0.60;;;;;;;;;;5005728;28;20398;-66
2021/05/08 11:56:32;;;;;;;1.55;0.65;;;;;;;;;;4991405;28;20497;-66
2021/05/08 11:59:00;;;;;;;2.08;0.60;;;;;;;;;;5010004;28;20018;-66
2021/05/08 12:01:26;;;;;;;2.25;0.80;;;;;;;;;;5010524;28;20029;-68
2021/05/08 12:03:55;;;;;;;1.63;0.80;;;;;;;;;;5010768;28;20033;-66
2021/05/08 12:06:22;;;;;;;2.10;0.77;;;;;;;;;;5010826;28;20041;-65
2021/05/08 12:08:48;;;;;;;1.77;0.57;;;;;;;;;;5009039;28;20441;-66
2021/05/08 12:11:18;;;;;;;1.67;0.65;;;;;;;;;;5010423;28;20057;-66
2021/05/08 12:13:44;;;;;;;2.25;0.88;;;;;;;;;;5010612;28;20030;-66
2021/05/08 12:16:10;;;;;;;1.23;0.60;;;;;;;;;;5010835;28;20480;-66
2021/05/08 12:18:37;;;;;;;1.23;0.63;;;;;;;;;;5010452;28;20026;-66
2021/05/08 12:21:05;;;;;;;1.27;0.63;;;;;;;;;;5004966;28;20116;-69
2021/05/08 12:23:31;;;;;;;0.75;0.52;;;;;;;;;;5008888;28;20387;-68
2021/05/08 12:26:06;;;;;;;1.48;0.70;;;;;;;;;;5040711;28;20018;-67
2021/05/08 12:28:45;;;;;;;1.67;0.70;;;;;;;;;;5034164;28;20031;-68
2021/05/08 12:31:21;;;;;;;1.38;0.65;;;;;;;;;;4989972;28;20038;-67
2021/05/08 12:33:47;;;;;;;1.85;0.70;;;;;;;;;;4990198;28;20042;-66
2021/05/08 12:36:14;;;;;;;1.17;0.70;;;;;;;;;;5022143;28;20026;-67
2021/05/08 12:38:40;;;;;;;1.73;0.70;;;;;;;;;;5027217;28;20117;-66
2021/05/08 12:41:26;;;;;;;1.40;0.57;;;;;;;;;;5042231;28;20478;-65
2021/05/08 12:44:01;;;;;;;1.02;0.55;;;;;;;;;;5010218;28;20517;-66
2021/05/08 12:46:28;;;;;;;1.42;0.60;;;;;;;;;;5001976;28;20047;-65
2021/05/08 12:48:54;;;;;;;1.30;0.60;;;;;;;;;;4993066;28;20029;-66
2021/05/08 12:51:25;;;;;;;1.52;0.60;;;;;;;;;;5008245;28;20036;-65
2021/05/08 12:54:10;;;;;;;0.88;0.55;;;;;;;;;;5009641;28;20041;-66
2021/05/08 12:56:36;;;;;;;1.45;0.77;;;;;;;;;;5008308;28;20057;-67
2021/05/08 12:59:02;;;;;;;2.58;0.60;;;;;;;;;;5007769;28;20055;-66
2021/05/08 13:01:30;;;;;;;1.75;0.65;;;;;;;;;;5009640;28;20034;-66
2021/05/08 13:03:56;;;;;;;2.03;0.70;;;;;;;;;;5009872;28;20369;-66
2021/05/08 13:06:25;;;;;;;1.02;0.47;;;;;;;;;;5003466;28;20033;-66
2021/05/08 13:08:55;;;;;;;1.73;0.70;;;;;;;;;;5008165;28;20081;-65
2021/05/08 13:11:36;;;;;;;1.88;0.65;;;;;;;;;;5008267;28;20405;-66
2021/05/08 13:14:34;;;;;;;1.52;0.52;;;;;;;;;;5009254;28;20029;-66
2021/05/08 13:17:01;;;;;;;2.30;0.70;;;;;;;;;;5021763;28;20424;-65
2021/05/08 13:19:27;;;;;;;2.22;0.85;;;;;;;;;;4997371;28;20026;-66
2021/05/08 13:21:54;;;;;;;1.83;0.60;;;;;;;;;;5006790;28;20037;-66
2021/05/08 13:24:31;;;;;;;1.17;0.60;;;;;;;;;;5007615;28;20097;-66
2021/05/08 13:26:57;;;;;;;0.82;0.60;;;;;;;;;;5008604;28;20113;-67
2021/05/08 13:29:23;;;;;;;1.35;0.70;;;;;;;;;;5003460;28;20029;-67
2021/05/08 13:31:50;;;;;;;1.33;0.70;;;;;;;;;;5007779;28;20667;-66
2021/05/08 13:34:16;;;;;;;1.00;0.47;;;;;;;;;;5007776;28;20072;-66
2021/05/08 13:36:45;;;;;;;1.45;0.70;;;;;;;;;;5003717;28;20704;-65
2021/05/08 13:39:11;;;;;;;0.98;0.63;;;;;;;;;;5007845;28;20026;-66
2021/05/08 13:41:37;;;;;;;1.23;0.68;;;;;;;;;;5004408;28;20018;-66
2021/05/08 13:44:04;;;;;;;1.75;0.70;;;;;;;;;;5005818;28;20094;-66
2021/05/08 13:46:30;;;;;;;1.55;0.80;;;;;;;;;;5007312;28;20022;-65
2021/05/08 13:48:56;;;;;;;0.85;0.50;;;;;;;;;;4995052;28;20026;-65
2021/05/08 13:51:22;;;;;;;1.25;0.60;;;;;;;;;;4993988;28;20033;-65
2021/05/08 13:53:48;;;;;;;2.15;0.63;;;;;;;;;;5002950;28;20056;-68
2021/05/08 13:56:14;;;;;;;1.73;0.60;;;;;;;;;;5024640;27;20045;-67
2021/05/08 13:58:40;;;;;;;2.58;0.60;;;;;;;;;;4987624;28;20019;-65
2021/05/08 14:01:06;;;;;;;2.28;0.70;;;;;;;;;;5035242;28;20026;-66
2021/05/08 14:03:32;;;;;;;0.90;0.60;;;;;;;;;;5007172;28;20038;-67
2021/05/08 14:05:58;;;;;;;0.93;0.50;;;;;;;;;;5003066;28;20082;-65
2021/05/08 14:08:24;;;;;;;1.23;0.60;;;;;;;;;;5007245;28;20048;-65
2021/05/08 14:10:50;;;;;;;2.83;0.63;;;;;;;;;;5008137;28;20034;-68
2021/05/08 14:13:17;;;;;;;1.48;0.70;;;;;;;;;;5007610;28;20378;-67
2021/05/08 14:15:43;;;;;;;1.20;0.52;;;;;;;;;;5039588;28;20026;-68
2021/05/08 14:18:09;;;;;;;1.48;0.65;;;;;;;;;;5008176;28;20029;-66
2021/05/08 14:20:35;;;;;;;1.17;0.70;;;;;;;;;;5008450;28;20343;-70
2021/05/08 14:23:01;;;;;;;1.40;0.73;;;;;;;;;;5008332;28;20030;-66
2021/05/08 14:25:27;;;;;;;1.83;0.70;;;;;;;;;;5008006;28;20591;-66
2021/05/08 14:27:53;;;;;;;1.40;0.70;;;;;;;;;;5040529;28;20109;-66
2021/05/08 14:30:19;;;;;;;2.60;0.80;;;;;;;;;;5040486;28;20041;-69
2021/05/08 14:32:46;;;;;;;1.17;0.65;;;;;;;;;;5010570;28;20026;-66
2021/05/08 14:35:12;;;;;;;1.65;0.60;;;;;;;;;;5012049;28;20078;-66
2021/05/08 14:37:39;;;;;;;2.83;0.77;;;;;;;;;;5012311;28;20022;-66
2021/05/08 14:40:07;;;;;;;2.58;0.73;;;;;;;;;;5010995;28;20461;-66
2021/05/08 14:42:33;;;;;;;1.80;0.80;;;;;;;;;;5011991;28;20082;-66
2021/05/08 14:45:01;;;;;;;1.17;0.60;;;;;;;;;;5012274;28;20590;-68
2021/05/08 14:47:28;;;;;;;1.17;0.68;;;;;;;;;;5012166;28;20022;-68